sensor_id;sensor_type;location;lat;lon;timestamp;temperature;humidity
45283;DHT22;31023;44.994;1.796;2024-03-02T00:00:43;7.60;99.90
45283;DHT22;31023;44.994;1.796;2024-03-02T00:03:08;7.50;99.90
45283;DHT22;31023;44.994;1.796;2024-03-02T00:05:39;7.50;99.90
45283;DHT22;31023;44.994;1.796;2024-03-02T00:08:05;7.70;99.90
45283;DHT22;31023;44.994;1.796;2024-03-02T00:10:35;7.70;99.90
45283;DHT22;31023;44.994;1.796;2024-03-02T00:13:02;7.70;99.90
45283;DHT22;31023;44.994;1.796;2024-03-02T00:17:53;7.80;99.90
45283;DHT22;31023;44.994;1.796;2024-03-02T00:20:21;7.80;99.90
45283;DHT22;31023;44.994;1.796;2024-03-02T00:22:47;7.70;99.90
45283;DHT22;31023;44.994;1.796;2024-03-02T00:25:12;7.80;99.90
45283;DHT22;31023;44.994;1.796;2024-03-02T00:27:38;7.70;99.90
45283;DHT22;31023;44.994;1.796;2024-03-02T00:30:35;7.70;99.90
45283;DHT22;31023;44.994;1.796;2024-03-02T00:33:01;7.80;99.90
45283;DHT22;31023;44.994;1.796;2024-03-02T00:35:27;7.80;99.90
45283;DHT22;31023;44.994;1.796;2024-03-02T00:37:53;7.70;99.90
45283;DHT22;31023;44.994;1.796;2024-03-02T00:40:20;7.60;99.90
45283;DHT22;31023;44.994;1.796;2024-03-02T00:42:45;7.70;99.90
45283;DHT22;31023;44.994;1.796;2024-03-02T00:45:11;7.70;99.90
45283;DHT22;31023;44.994;1.796;2024-03-02T00:47:38;7.70;99.90
45283;DHT22;31023;44.994;1.796;2024-03-02T00:50:04;7.60;99.90
45283;DHT22;31023;44.994;1.796;2024-03-02T00:52:30;7.70;99.90
45283;DHT22;31023;44.994;1.796;2024-03-02T00:54:58;7.60;99.90
45283;DHT22;31023;44.994;1.796;2024-03-02T00:57:24;7.60;99.90
45283;DHT22;31023;44.994;1.796;2024-03-02T00:59:51;7.70;99.90
45283;DHT22;31023;44.994;1.796;2024-03-02T01:02:17;7.60;99.90
45283;DHT22;31023;44.994;1.796;2024-03-02T01:04:42;7.70;99.90
45283;DHT22;31023;44.994;1.796;2024-03-02T01:07:08;7.60;99.90
45283;DHT22;31023;44.994;1.796;2024-03-02T01:09:33;7.60;99.90
45283;DHT22;31023;44.994;1.796;2024-03-02T01:11:59;7.60;99.90
45283;DHT22;31023;44.994;1.796;2024-03-02T01:14:24;7.60;99.90
45283;DHT22;31023;44.994;1.796;2024-03-02T01:16:50;7.60;99.90
45283;DHT22;31023;44.994;1.796;2024-03-02T01:19:16;7.60;99.90
45283;DHT22;31023;44.994;1.796;2024-03-02T01:21:42;7.60;99.90
45283;DHT22;31023;44.994;1.796;2024-03-02T01:24:07;7.60;99.90
45283;DHT22;31023;44.994;1.796;2024-03-02T01:26:33;7.60;99.90
45283;DHT22;31023;44.994;1.796;2024-03-02T01:28:58;7.50;99.90
45283;DHT22;31023;44.994;1.796;2024-03-02T01:31:24;7.60;99.90
45283;DHT22;31023;44.994;1.796;2024-03-02T01:33:49;7.50;99.90
45283;DHT22;31023;44.994;1.796;2024-03-02T01:36:15;7.50;99.90
45283;DHT22;31023;44.994;1.796;2024-03-02T01:38:41;7.50;99.90
45283;DHT22;31023;44.994;1.796;2024-03-02T01:41:06;7.50;99.90
45283;DHT22;31023;44.994;1.796;2024-03-02T01:43:32;7.50;99.90
45283;DHT22;31023;44.994;1.796;2024-03-02T01:45:57;7.50;99.90
45283;DHT22;31023;44.994;1.796;2024-03-02T01:48:24;7.50;99.90
45283;DHT22;31023;44.994;1.796;2024-03-02T01:50:49;7.50;99.90
45283;DHT22;31023;44.994;1.796;2024-03-02T01:53:15;7.50;99.90
45283;DHT22;31023;44.994;1.796;2024-03-02T01:55:41;7.40;99.90
45283;DHT22;31023;44.994;1.796;2024-03-02T01:58:07;7.50;99.90
45283;DHT22;31023;44.994;1.796;2024-03-02T02:00:32;7.50;99.90
45283;DHT22;31023;44.994;1.796;2024-03-02T02:02:58;7.50;99.90
45283;DHT22;31023;44.994;1.796;2024-03-02T02:05:24;7.50;99.90
45283;DHT22;31023;44.994;1.796;2024-03-02T02:07:49;7.40;99.90
45283;DHT22;31023;44.994;1.796;2024-03-02T02:10:15;7.40;99.90
45283;DHT22;31023;44.994;1.796;2024-03-02T02:12:41;7.40;99.90
45283;DHT22;31023;44.994;1.796;2024-03-02T02:15:22;7.40;99.90
45283;DHT22;31023;44.994;1.796;2024-03-02T02:17:48;7.40;99.90
45283;DHT22;31023;44.994;1.796;2024-03-02T02:20:13;7.50;99.90
45283;DHT22;31023;44.994;1.796;2024-03-02T02:22:39;7.40;99.90
45283;DHT22;31023;44.994;1.796;2024-03-02T02:25:05;7.40;99.90
45283;DHT22;31023;44.994;1.796;2024-03-02T02:27:30;7.50;99.90
45283;DHT22;31023;44.994;1.796;2024-03-02T02:29:56;7.40;99.90
45283;DHT22;31023;44.994;1.796;2024-03-02T02:32:22;7.40;99.90
45283;DHT22;31023;44.994;1.796;2024-03-02T02:34:51;7.40;99.90
45283;DHT22;31023;44.994;1.796;2024-03-02T02:37:17;7.40;99.90
45283;DHT22;31023;44.994;1.796;2024-03-02T02:39:42;7.40;99.90
45283;DHT22;31023;44.994;1.796;2024-03-02T02:42:08;7.40;99.90
45283;DHT22;31023;44.994;1.796;2024-03-02T02:44:34;7.40;99.90
45283;DHT22;31023;44.994;1.796;2024-03-02T02:46:59;7.40;99.90
45283;DHT22;31023;44.994;1.796;2024-03-02T02:49:25;7.40;99.90
45283;DHT22;31023;44.994;1.796;2024-03-02T02:51:51;7.40;99.90
45283;DHT22;31023;44.994;1.796;2024-03-02T02:54:17;7.40;99.90
45283;DHT22;31023;44.994;1.796;2024-03-02T02:56:42;7.40;99.90
45283;DHT22;31023;44.994;1.796;2024-03-02T02:59:08;7.40;99.90
45283;DHT22;31023;44.994;1.796;2024-03-02T03:01:34;7.40;99.90
45283;DHT22;31023;44.994;1.796;2024-03-02T03:03:59;7.30;99.90
45283;DHT22;31023;44.994;1.796;2024-03-02T03:06:25;7.40;99.90
45283;DHT22;31023;44.994;1.796;2024-03-02T03:08:50;7.40;99.90
45283;DHT22;31023;44.994;1.796;2024-03-02T03:11:16;7.30;99.90
45283;DHT22;31023;44.994;1.796;2024-03-02T03:13:41;7.40;99.90
45283;DHT22;31023;44.994;1.796;2024-03-02T03:16:07;7.40;99.90
45283;DHT22;31023;44.994;1.796;2024-03-02T03:18:32;7.30;99.90
45283;DHT22;31023;44.994;1.796;2024-03-02T03:20:58;7.30;99.90
45283;DHT22;31023;44.994;1.796;2024-03-02T03:23:24;7.30;99.90
45283;DHT22;31023;44.994;1.796;2024-03-02T03:25:51;7.30;99.90
45283;DHT22;31023;44.994;1.796;2024-03-02T03:28:16;7.30;99.90
45283;DHT22;31023;44.994;1.796;2024-03-02T03:30:43;7.30;99.90
45283;DHT22;31023;44.994;1.796;2024-03-02T03:33:08;7.30;99.90
45283;DHT22;31023;44.994;1.796;2024-03-02T03:35:35;7.30;99.90
45283;DHT22;31023;44.994;1.796;2024-03-02T03:38:01;7.30;99.90
45283;DHT22;31023;44.994;1.796;2024-03-02T03:40:27;7.20;99.90
45283;DHT22;31023;44.994;1.796;2024-03-02T03:42:52;7.20;99.90
45283;DHT22;31023;44.994;1.796;2024-03-02T03:45:18;7.20;99.90
45283;DHT22;31023;44.994;1.796;2024-03-02T03:47:44;7.30;99.90
45283;DHT22;31023;44.994;1.796;2024-03-02T03:50:10;7.20;99.90
45283;DHT22;31023;44.994;1.796;2024-03-02T03:52:35;7.20;99.90
45283;DHT22;31023;44.994;1.796;2024-03-02T03:55:01;7.20;99.90
45283;DHT22;31023;44.994;1.796;2024-03-02T03:57:27;7.20;99.90
45283;DHT22;31023;44.994;1.796;2024-03-02T03:59:53;7.20;99.90
45283;DHT22;31023;44.994;1.796;2024-03-02T04:02:19;7.20;99.90
45283;DHT22;31023;44.994;1.796;2024-03-02T04:04:44;7.20;99.90
45283;DHT22;31023;44.994;1.796;2024-03-02T04:07:10;7.20;99.90
45283;DHT22;31023;44.994;1.796;2024-03-02T04:09:36;7.20;99.90
45283;DHT22;31023;44.994;1.796;2024-03-02T04:12:01;7.10;99.90
45283;DHT22;31023;44.994;1.796;2024-03-02T04:14:27;7.10;99.90
45283;DHT22;31023;44.994;1.796;2024-03-02T04:16:52;7.10;99.90
45283;DHT22;31023;44.994;1.796;2024-03-02T04:19:18;7.10;99.90
45283;DHT22;31023;44.994;1.796;2024-03-02T04:21:44;7.10;99.90
45283;DHT22;31023;44.994;1.796;2024-03-02T04:24:09;7.10;99.90
45283;DHT22;31023;44.994;1.796;2024-03-02T04:26:35;7.10;99.90
45283;DHT22;31023;44.994;1.796;2024-03-02T04:29:00;7.10;99.90
45283;DHT22;31023;44.994;1.796;2024-03-02T04:31:27;7.10;99.90
45283;DHT22;31023;44.994;1.796;2024-03-02T04:33:52;7.00;99.90
45283;DHT22;31023;44.994;1.796;2024-03-02T04:36:19;7.00;99.90
45283;DHT22;31023;44.994;1.796;2024-03-02T04:38:45;7.10;99.90
45283;DHT22;31023;44.994;1.796;2024-03-02T04:41:10;7.00;99.90
45283;DHT22;31023;44.994;1.796;2024-03-02T04:43:36;7.00;99.90
45283;DHT22;31023;44.994;1.796;2024-03-02T04:46:01;7.00;99.90
45283;DHT22;31023;44.994;1.796;2024-03-02T04:48:27;7.10;99.90
45283;DHT22;31023;44.994;1.796;2024-03-02T04:50:52;7.10;99.90
45283;DHT22;31023;44.994;1.796;2024-03-02T04:53:18;7.00;99.90
45283;DHT22;31023;44.994;1.796;2024-03-02T04:55:43;7.00;99.90
45283;DHT22;31023;44.994;1.796;2024-03-02T04:58:09;7.00;99.90
45283;DHT22;31023;44.994;1.796;2024-03-02T05:00:34;7.10;99.90
45283;DHT22;31023;44.994;1.796;2024-03-02T05:03:00;7.10;99.90
45283;DHT22;31023;44.994;1.796;2024-03-02T05:05:26;7.10;99.90
45283;DHT22;31023;44.994;1.796;2024-03-02T05:07:52;7.10;99.90
45283;DHT22;31023;44.994;1.796;2024-03-02T05:10:17;7.10;99.90
45283;DHT22;31023;44.994;1.796;2024-03-02T05:12:43;7.10;99.90
45283;DHT22;31023;44.994;1.796;2024-03-02T05:15:09;7.10;99.90
45283;DHT22;31023;44.994;1.796;2024-03-02T05:17:35;7.00;99.90
45283;DHT22;31023;44.994;1.796;2024-03-02T05:20:01;7.10;99.90
45283;DHT22;31023;44.994;1.796;2024-03-02T05:22:27;7.10;99.90
45283;DHT22;31023;44.994;1.796;2024-03-02T05:24:52;7.10;99.90
45283;DHT22;31023;44.994;1.796;2024-03-02T05:27:18;7.10;99.90
45283;DHT22;31023;44.994;1.796;2024-03-02T05:29:43;7.10;99.90
45283;DHT22;31023;44.994;1.796;2024-03-02T05:32:09;7.10;99.90
45283;DHT22;31023;44.994;1.796;2024-03-02T05:34:34;7.10;99.90
45283;DHT22;31023;44.994;1.796;2024-03-02T05:37:01;7.10;99.90
45283;DHT22;31023;44.994;1.796;2024-03-02T05:39:26;7.10;99.90
45283;DHT22;31023;44.994;1.796;2024-03-02T05:41:52;7.10;99.90
45283;DHT22;31023;44.994;1.796;2024-03-02T05:44:17;7.10;99.90
45283;DHT22;31023;44.994;1.796;2024-03-02T05:46:44;7.10;99.90
45283;DHT22;31023;44.994;1.796;2024-03-02T05:49:09;7.10;99.90
45283;DHT22;31023;44.994;1.796;2024-03-02T05:51:35;7.10;99.90
45283;DHT22;31023;44.994;1.796;2024-03-02T05:54:01;7.00;99.90
45283;DHT22;31023;44.994;1.796;2024-03-02T05:56:26;7.10;99.90
45283;DHT22;31023;44.994;1.796;2024-03-02T05:58:52;7.00;99.90
45283;DHT22;31023;44.994;1.796;2024-03-02T06:01:36;7.00;99.90
45283;DHT22;31023;44.994;1.796;2024-03-02T06:04:02;7.10;99.90
45283;DHT22;31023;44.994;1.796;2024-03-02T06:06:27;7.10;99.90
45283;DHT22;31023;44.994;1.796;2024-03-02T06:08:53;7.10;99.90
45283;DHT22;31023;44.994;1.796;2024-03-02T06:11:19;7.10;99.90
45283;DHT22;31023;44.994;1.796;2024-03-02T06:13:44;7.10;99.90
45283;DHT22;31023;44.994;1.796;2024-03-02T06:16:10;7.10;99.90
45283;DHT22;31023;44.994;1.796;2024-03-02T06:18:36;7.10;99.90
45283;DHT22;31023;44.994;1.796;2024-03-02T06:21:01;7.10;99.90
45283;DHT22;31023;44.994;1.796;2024-03-02T06:23:27;7.10;99.90
45283;DHT22;31023;44.994;1.796;2024-03-02T06:25:53;7.10;99.90
45283;DHT22;31023;44.994;1.796;2024-03-02T06:28:18;7.10;99.90
45283;DHT22;31023;44.994;1.796;2024-03-02T06:30:44;7.10;99.90
45283;DHT22;31023;44.994;1.796;2024-03-02T06:33:10;7.10;99.90
45283;DHT22;31023;44.994;1.796;2024-03-02T06:35:36;7.10;99.90
45283;DHT22;31023;44.994;1.796;2024-03-02T06:38:01;7.10;99.90
45283;DHT22;31023;44.994;1.796;2024-03-02T06:40:27;7.10;99.90
45283;DHT22;31023;44.994;1.796;2024-03-02T06:42:52;7.20;99.90
45283;DHT22;31023;44.994;1.796;2024-03-02T06:45:18;7.20;99.90
45283;DHT22;31023;44.994;1.796;2024-03-02T06:47:43;7.20;99.90
45283;DHT22;31023;44.994;1.796;2024-03-02T06:50:09;7.20;99.90
45283;DHT22;31023;44.994;1.796;2024-03-02T06:52:35;7.20;99.90
45283;DHT22;31023;44.994;1.796;2024-03-02T06:55:00;7.20;99.90
45283;DHT22;31023;44.994;1.796;2024-03-02T06:57:26;7.20;99.90
45283;DHT22;31023;44.994;1.796;2024-03-02T06:59:52;7.20;99.90
45283;DHT22;31023;44.994;1.796;2024-03-02T07:02:20;7.20;99.90
45283;DHT22;31023;44.994;1.796;2024-03-02T07:04:46;7.20;99.90
45283;DHT22;31023;44.994;1.796;2024-03-02T07:07:12;7.20;99.90
45283;DHT22;31023;44.994;1.796;2024-03-02T07:09:37;7.20;99.90
45283;DHT22;31023;44.994;1.796;2024-03-02T07:12:03;7.20;99.90
45283;DHT22;31023;44.994;1.796;2024-03-02T07:14:29;7.30;99.90
45283;DHT22;31023;44.994;1.796;2024-03-02T07:17:14;7.30;99.90
45283;DHT22;31023;44.994;1.796;2024-03-02T07:19:39;7.10;99.90
45283;DHT22;31023;44.994;1.796;2024-03-02T07:22:08;7.20;99.90
45283;DHT22;31023;44.994;1.796;2024-03-02T07:24:40;7.10;99.90
45283;DHT22;31023;44.994;1.796;2024-03-02T07:27:06;7.10;99.90
45283;DHT22;31023;44.994;1.796;2024-03-02T07:29:32;7.10;99.90
45283;DHT22;31023;44.994;1.796;2024-03-02T07:31:57;7.20;99.90
45283;DHT22;31023;44.994;1.796;2024-03-02T07:34:23;7.10;99.90
45283;DHT22;31023;44.994;1.796;2024-03-02T07:36:48;7.10;99.90
45283;DHT22;31023;44.994;1.796;2024-03-02T07:39:14;7.20;99.90
45283;DHT22;31023;44.994;1.796;2024-03-02T07:41:40;7.00;99.90
45283;DHT22;31023;44.994;1.796;2024-03-02T07:44:05;6.90;99.90
45283;DHT22;31023;44.994;1.796;2024-03-02T07:46:31;7.00;99.90
45283;DHT22;31023;44.994;1.796;2024-03-02T07:48:56;7.10;99.90
45283;DHT22;31023;44.994;1.796;2024-03-02T07:51:22;7.20;99.90
45283;DHT22;31023;44.994;1.796;2024-03-02T07:53:47;7.30;99.90
45283;DHT22;31023;44.994;1.796;2024-03-02T07:56:13;7.50;99.90
45283;DHT22;31023;44.994;1.796;2024-03-02T07:58:38;7.50;99.90
45283;DHT22;31023;44.994;1.796;2024-03-02T08:01:04;7.40;99.90
45283;DHT22;31023;44.994;1.796;2024-03-02T08:03:30;7.30;99.90
45283;DHT22;31023;44.994;1.796;2024-03-02T08:05:58;7.40;99.90
45283;DHT22;31023;44.994;1.796;2024-03-02T08:08:24;7.40;99.90
45283;DHT22;31023;44.994;1.796;2024-03-02T08:10:49;7.30;99.90
45283;DHT22;31023;44.994;1.796;2024-03-02T08:13:15;7.30;99.90
45283;DHT22;31023;44.994;1.796;2024-03-02T08:15:41;7.30;99.90
45283;DHT22;31023;44.994;1.796;2024-03-02T08:18:06;7.30;99.90
45283;DHT22;31023;44.994;1.796;2024-03-02T08:20:32;7.40;99.90
45283;DHT22;31023;44.994;1.796;2024-03-02T08:22:57;7.40;99.90
45283;DHT22;31023;44.994;1.796;2024-03-02T08:25:23;7.50;99.90
45283;DHT22;31023;44.994;1.796;2024-03-02T08:27:49;7.50;99.90
45283;DHT22;31023;44.994;1.796;2024-03-02T08:30:14;7.60;99.90
45283;DHT22;31023;44.994;1.796;2024-03-02T08:32:40;7.60;99.90
45283;DHT22;31023;44.994;1.796;2024-03-02T08:35:06;7.70;99.90
45283;DHT22;31023;44.994;1.796;2024-03-02T08:37:31;7.70;99.90
45283;DHT22;31023;44.994;1.796;2024-03-02T08:39:57;7.80;99.90
45283;DHT22;31023;44.994;1.796;2024-03-02T08:42:23;8.00;99.90
45283;DHT22;31023;44.994;1.796;2024-03-02T08:44:48;8.10;99.90
45283;DHT22;31023;44.994;1.796;2024-03-02T08:47:14;8.10;99.90
45283;DHT22;31023;44.994;1.796;2024-03-02T08:49:40;8.10;99.90
45283;DHT22;31023;44.994;1.796;2024-03-02T08:52:05;8.10;99.90
45283;DHT22;31023;44.994;1.796;2024-03-02T08:54:31;8.10;99.90
45283;DHT22;31023;44.994;1.796;2024-03-02T08:56:58;8.10;99.90
45283;DHT22;31023;44.994;1.796;2024-03-02T08:59:24;8.30;99.90
45283;DHT22;31023;44.994;1.796;2024-03-02T09:01:50;8.30;99.90
45283;DHT22;31023;44.994;1.796;2024-03-02T09:04:16;8.20;99.90
45283;DHT22;31023;44.994;1.796;2024-03-02T09:06:42;8.40;99.90
45283;DHT22;31023;44.994;1.796;2024-03-02T09:09:07;8.50;99.90
45283;DHT22;31023;44.994;1.796;2024-03-02T09:11:33;8.50;99.90
45283;DHT22;31023;44.994;1.796;2024-03-02T09:13:59;8.50;99.90
45283;DHT22;31023;44.994;1.796;2024-03-02T09:16:25;8.60;99.90
45283;DHT22;31023;44.994;1.796;2024-03-02T09:18:56;8.70;99.90
45283;DHT22;31023;44.994;1.796;2024-03-02T09:21:21;8.90;99.90
45283;DHT22;31023;44.994;1.796;2024-03-02T09:23:48;8.80;99.90
45283;DHT22;31023;44.994;1.796;2024-03-02T09:26:13;8.70;99.90
45283;DHT22;31023;44.994;1.796;2024-03-02T09:28:43;8.60;99.90
45283;DHT22;31023;44.994;1.796;2024-03-02T09:31:08;8.50;99.90
45283;DHT22;31023;44.994;1.796;2024-03-02T09:33:34;8.50;99.90
45283;DHT22;31023;44.994;1.796;2024-03-02T09:36:00;8.50;99.90
45283;DHT22;31023;44.994;1.796;2024-03-02T09:38:25;8.50;99.90
45283;DHT22;31023;44.994;1.796;2024-03-02T09:40:51;8.50;99.90
45283;DHT22;31023;44.994;1.796;2024-03-02T09:43:16;8.60;99.90
45283;DHT22;31023;44.994;1.796;2024-03-02T09:45:42;8.70;99.90
45283;DHT22;31023;44.994;1.796;2024-03-02T09:48:08;8.70;99.90
45283;DHT22;31023;44.994;1.796;2024-03-02T09:50:34;8.80;99.60
45283;DHT22;31023;44.994;1.796;2024-03-02T09:52:59;8.70;99.80
45283;DHT22;31023;44.994;1.796;2024-03-02T09:55:25;8.70;99.60
45283;DHT22;31023;44.994;1.796;2024-03-02T09:57:50;8.70;99.40
45283;DHT22;31023;44.994;1.796;2024-03-02T10:00:16;8.70;99.30
45283;DHT22;31023;44.994;1.796;2024-03-02T10:02:42;8.90;98.70
45283;DHT22;31023;44.994;1.796;2024-03-02T10:05:08;8.80;98.60
45283;DHT22;31023;44.994;1.796;2024-03-02T10:07:34;8.90;98.50
45283;DHT22;31023;44.994;1.796;2024-03-02T10:10:00;9.00;98.20
45283;DHT22;31023;44.994;1.796;2024-03-02T10:12:37;9.00;98.10
45283;DHT22;31023;44.994;1.796;2024-03-02T10:15:03;9.10;97.30
45283;DHT22;31023;44.994;1.796;2024-03-02T10:17:30;9.10;96.80
45283;DHT22;31023;44.994;1.796;2024-03-02T10:19:56;9.10;97.10
45283;DHT22;31023;44.994;1.796;2024-03-02T10:22:22;9.10;96.80
45283;DHT22;31023;44.994;1.796;2024-03-02T10:24:48;9.10;96.10
45283;DHT22;31023;44.994;1.796;2024-03-02T10:27:19;9.10;95.80
45283;DHT22;31023;44.994;1.796;2024-03-02T10:29:47;9.20;95.70
45283;DHT22;31023;44.994;1.796;2024-03-02T10:32:13;9.10;94.80
45283;DHT22;31023;44.994;1.796;2024-03-02T10:34:42;9.20;95.40
45283;DHT22;31023;44.994;1.796;2024-03-02T10:37:08;9.30;95.10
45283;DHT22;31023;44.994;1.796;2024-03-02T10:39:34;9.30;94.70
45283;DHT22;31023;44.994;1.796;2024-03-02T10:42:01;9.30;94.40
45283;DHT22;31023;44.994;1.796;2024-03-02T10:44:28;9.40;94.10
45283;DHT22;31023;44.994;1.796;2024-03-02T10:46:54;9.30;94.00
45283;DHT22;31023;44.994;1.796;2024-03-02T10:49:20;9.40;93.70
45283;DHT22;31023;44.994;1.796;2024-03-02T10:51:48;9.50;93.00
45283;DHT22;31023;44.994;1.796;2024-03-02T10:54:13;9.50;93.10
45283;DHT22;31023;44.994;1.796;2024-03-02T10:56:40;9.60;93.10
45283;DHT22;31023;44.994;1.796;2024-03-02T10:59:13;9.70;92.70
45283;DHT22;31023;44.994;1.796;2024-03-02T11:01:41;9.70;92.60
45283;DHT22;31023;44.994;1.796;2024-03-02T11:04:08;9.80;92.80
45283;DHT22;31023;44.994;1.796;2024-03-02T11:06:34;9.90;92.80
45283;DHT22;31023;44.994;1.796;2024-03-02T11:09:04;9.90;92.80
45283;DHT22;31023;44.994;1.796;2024-03-02T11:11:32;10.20;92.20
45283;DHT22;31023;44.994;1.796;2024-03-02T11:14:01;10.40;92.30
45283;DHT22;31023;44.994;1.796;2024-03-02T11:16:36;10.50;91.80
45283;DHT22;31023;44.994;1.796;2024-03-02T11:19:05;10.60;91.60
45283;DHT22;31023;44.994;1.796;2024-03-02T11:21:32;10.90;91.20
45283;DHT22;31023;44.994;1.796;2024-03-02T11:23:59;11.10;91.30
45283;DHT22;31023;44.994;1.796;2024-03-02T11:26:24;11.20;91.10
45283;DHT22;31023;44.994;1.796;2024-03-02T11:28:50;11.40;91.10
45283;DHT22;31023;44.994;1.796;2024-03-02T11:31:15;11.40;90.80
45283;DHT22;31023;44.994;1.796;2024-03-02T11:33:41;11.50;91.20
45283;DHT22;31023;44.994;1.796;2024-03-02T11:36:08;11.60;90.90
45283;DHT22;31023;44.994;1.796;2024-03-02T11:38:34;11.80;90.50
45283;DHT22;31023;44.994;1.796;2024-03-02T11:41:00;11.80;90.10
45283;DHT22;31023;44.994;1.796;2024-03-02T11:43:30;11.90;88.60
45283;DHT22;31023;44.994;1.796;2024-03-02T11:45:59;12.00;89.20
45283;DHT22;31023;44.994;1.796;2024-03-02T11:48:25;11.90;88.80
45283;DHT22;31023;44.994;1.796;2024-03-02T11:50:51;12.10;87.30
45283;DHT22;31023;44.994;1.796;2024-03-02T11:53:16;12.30;87.90
45283;DHT22;31023;44.994;1.796;2024-03-02T11:55:43;12.00;87.80
45283;DHT22;31023;44.994;1.796;2024-03-02T11:58:12;11.90;88.80
45283;DHT22;31023;44.994;1.796;2024-03-02T12:00:37;11.70;88.50
45283;DHT22;31023;44.994;1.796;2024-03-02T12:03:06;11.60;88.90
45283;DHT22;31023;44.994;1.796;2024-03-02T12:05:32;11.30;89.70
45283;DHT22;31023;44.994;1.796;2024-03-02T12:07:58;11.60;89.30
45283;DHT22;31023;44.994;1.796;2024-03-02T12:10:24;11.90;87.70
45283;DHT22;31023;44.994;1.796;2024-03-02T12:13:00;12.10;86.60
45283;DHT22;31023;44.994;1.796;2024-03-02T12:15:26;12.20;85.50
45283;DHT22;31023;44.994;1.796;2024-03-02T12:17:53;12.20;85.10
45283;DHT22;31023;44.994;1.796;2024-03-02T12:20:18;12.30;84.30
45283;DHT22;31023;44.994;1.796;2024-03-02T12:22:44;12.30;83.50
45283;DHT22;31023;44.994;1.796;2024-03-02T12:25:09;12.60;82.40
45283;DHT22;31023;44.994;1.796;2024-03-02T12:27:35;12.40;81.90
45283;DHT22;31023;44.994;1.796;2024-03-02T12:30:01;11.90;81.50
45283;DHT22;31023;44.994;1.796;2024-03-02T12:32:26;11.70;84.30
45283;DHT22;31023;44.994;1.796;2024-03-02T12:34:52;11.50;84.10
45283;DHT22;31023;44.994;1.796;2024-03-02T12:37:18;11.50;83.20
45283;DHT22;31023;44.994;1.796;2024-03-02T12:39:46;11.90;81.30
45283;DHT22;31023;44.994;1.796;2024-03-02T12:42:12;12.10;79.90
45283;DHT22;31023;44.994;1.796;2024-03-02T12:44:38;12.10;78.80
45283;DHT22;31023;44.994;1.796;2024-03-02T12:47:05;12.20;78.50
45283;DHT22;31023;44.994;1.796;2024-03-02T12:49:30;12.20;78.10
45283;DHT22;31023;44.994;1.796;2024-03-02T12:51:57;12.00;78.50
45283;DHT22;31023;44.994;1.796;2024-03-02T12:54:23;11.80;79.70
45283;DHT22;31023;44.994;1.796;2024-03-02T12:56:50;12.00;79.40
45283;DHT22;31023;44.994;1.796;2024-03-02T12:59:20;12.40;76.20
45283;DHT22;31023;44.994;1.796;2024-03-02T13:01:52;12.80;76.10
45283;DHT22;31023;44.994;1.796;2024-03-02T13:04:21;13.00;74.30
45283;DHT22;31023;44.994;1.796;2024-03-02T13:06:47;13.00;73.20
45283;DHT22;31023;44.994;1.796;2024-03-02T13:09:13;13.20;74.40
45283;DHT22;31023;44.994;1.796;2024-03-02T13:11:40;13.20;72.80
45283;DHT22;31023;44.994;1.796;2024-03-02T13:14:06;13.40;73.20
45283;DHT22;31023;44.994;1.796;2024-03-02T13:16:32;13.20;70.80
45283;DHT22;31023;44.994;1.796;2024-03-02T13:19:03;13.00;71.20
45283;DHT22;31023;44.994;1.796;2024-03-02T13:21:28;13.00;69.30
45283;DHT22;31023;44.994;1.796;2024-03-02T13:23:54;13.10;69.70
45283;DHT22;31023;44.994;1.796;2024-03-02T13:26:19;13.00;68.40
45283;DHT22;31023;44.994;1.796;2024-03-02T13:28:45;13.10;68.90
45283;DHT22;31023;44.994;1.796;2024-03-02T13:31:11;13.30;68.10
45283;DHT22;31023;44.994;1.796;2024-03-02T13:33:37;13.50;68.20
45283;DHT22;31023;44.994;1.796;2024-03-02T13:36:03;13.30;68.60
45283;DHT22;31023;44.994;1.796;2024-03-02T13:38:28;13.40;68.40
45283;DHT22;31023;44.994;1.796;2024-03-02T13:40:54;13.10;67.00
45283;DHT22;31023;44.994;1.796;2024-03-02T13:43:19;13.00;68.30
45283;DHT22;31023;44.994;1.796;2024-03-02T13:45:45;12.80;68.20
45283;DHT22;31023;44.994;1.796;2024-03-02T13:48:10;12.70;68.70
45283;DHT22;31023;44.994;1.796;2024-03-02T13:50:36;12.50;69.60
45283;DHT22;31023;44.994;1.796;2024-03-02T13:53:02;12.40;68.90
45283;DHT22;31023;44.994;1.796;2024-03-02T13:55:28;12.40;68.50
45283;DHT22;31023;44.994;1.796;2024-03-02T13:57:54;12.30;68.80
45283;DHT22;31023;44.994;1.796;2024-03-02T14:00:19;12.30;68.30
45283;DHT22;31023;44.994;1.796;2024-03-02T14:02:45;12.40;68.50
45283;DHT22;31023;44.994;1.796;2024-03-02T14:05:11;12.50;68.70
45283;DHT22;31023;44.994;1.796;2024-03-02T14:07:40;12.50;69.60
45283;DHT22;31023;44.994;1.796;2024-03-02T14:10:06;12.40;69.80
45283;DHT22;31023;44.994;1.796;2024-03-02T14:12:32;12.30;70.70
45283;DHT22;31023;44.994;1.796;2024-03-02T14:14:57;12.30;69.80
45283;DHT22;31023;44.994;1.796;2024-03-02T14:17:26;12.20;71.00
45283;DHT22;31023;44.994;1.796;2024-03-02T14:19:52;12.20;71.40
45283;DHT22;31023;44.994;1.796;2024-03-02T14:22:19;12.20;71.60
45283;DHT22;31023;44.994;1.796;2024-03-02T14:24:44;12.20;72.90
45283;DHT22;31023;44.994;1.796;2024-03-02T14:27:10;12.20;72.10
45283;DHT22;31023;44.994;1.796;2024-03-02T14:29:36;12.20;72.50
45283;DHT22;31023;44.994;1.796;2024-03-02T14:32:03;12.40;72.70
45283;DHT22;31023;44.994;1.796;2024-03-02T14:34:29;12.60;72.50
45283;DHT22;31023;44.994;1.796;2024-03-02T14:36:54;12.70;72.00
45283;DHT22;31023;44.994;1.796;2024-03-02T14:39:20;12.70;72.80
45283;DHT22;31023;44.994;1.796;2024-03-02T14:41:46;12.80;72.90
45283;DHT22;31023;44.994;1.796;2024-03-02T14:44:11;12.80;72.90
45283;DHT22;31023;44.994;1.796;2024-03-02T14:46:37;12.70;73.20
45283;DHT22;31023;44.994;1.796;2024-03-02T14:49:03;12.50;74.40
45283;DHT22;31023;44.994;1.796;2024-03-02T14:51:29;12.60;74.50
45283;DHT22;31023;44.994;1.796;2024-03-02T14:53:55;12.60;74.60
45283;DHT22;31023;44.994;1.796;2024-03-02T14:56:21;12.50;75.20
45283;DHT22;31023;44.994;1.796;2024-03-02T14:58:46;12.50;75.30
45283;DHT22;31023;44.994;1.796;2024-03-02T15:01:12;12.40;75.20
45283;DHT22;31023;44.994;1.796;2024-03-02T15:03:38;12.30;75.70
45283;DHT22;31023;44.994;1.796;2024-03-02T15:06:03;12.30;75.70
45283;DHT22;31023;44.994;1.796;2024-03-02T15:08:29;12.30;76.20
45283;DHT22;31023;44.994;1.796;2024-03-02T15:10:55;12.40;75.20
45283;DHT22;31023;44.994;1.796;2024-03-02T15:13:21;12.40;75.70
45283;DHT22;31023;44.994;1.796;2024-03-02T15:15:47;12.50;75.10
45283;DHT22;31023;44.994;1.796;2024-03-02T15:18:13;12.60;75.90
45283;DHT22;31023;44.994;1.796;2024-03-02T15:20:38;12.80;75.00
45283;DHT22;31023;44.994;1.796;2024-03-02T15:23:04;12.90;74.40
45283;DHT22;31023;44.994;1.796;2024-03-02T15:25:29;12.80;75.30
45283;DHT22;31023;44.994;1.796;2024-03-02T15:27:55;12.70;75.30
45283;DHT22;31023;44.994;1.796;2024-03-02T15:30:21;12.60;76.20
45283;DHT22;31023;44.994;1.796;2024-03-02T15:32:47;12.50;76.90
45283;DHT22;31023;44.994;1.796;2024-03-02T15:35:12;12.40;76.40
45283;DHT22;31023;44.994;1.796;2024-03-02T15:37:38;12.40;76.70